x

Tanner Bank - 121nm West Of San Diego, Ca (46047) Wave Buoy

4:50pm - Tue 25th Apr 2017 All times are PDT. -7 hours from GMT.

  • Sig Wave height 12.1ft
  • Swell Direction
  • Peak Period 8s
  • Average Period 7s
  • Wind
    31mph, 40mph gusts
  • Sea Temp 57°f
  • Air Temp 58°f
  • Sea Pressure 1013.3mb
  • Tanner Bank - 121nm West Of San Diego, Ca
  • Tanner Bank - 121nm West Of San Diego, Ca

More Historic Weather Station data

Upgrade to MSW Pro to gain access to the past 30 days of data for over 8000 Wavebouys and Weather Stations around the globe.

Join Pro

Comparision Forecast

View Surf forecast
   
Tue 04/25 4:50pm 12ft 8s 7s 31 40 mph 1013.3mb 57f 58f
3:50pm 13ft 8s 7s 29 38 mph 1013.9mb 57f 57f
2:50pm 11ft 9s 7s 31 40 mph 1013.9mb 57f 57f
1:50pm 12ft 8s 7s 34 40 mph 1014.4mb 57f 57f
12:50pm 12ft 9s 7s 31 38 mph 1015mb 57f 57f
11:50am 11.5ft 8s 7s 31 38 mph 1015.6mb 57f 57f
10:50am 12.5ft 8s 7s 29 38 mph 1015.4mb 57f 57f
9:50am 12ft 8s 7s 31 38 mph 1015mb 57f 57f
8:50am 12ft 9s 7s 31 38 mph 1014.4mb 57f 57f
7:50am 12ft 8s 7s 31 38 mph 1014.4mb 57f 57f
6:50am 12ft 8s 7s 29 36 mph 1013.7mb 57f 57f
5:50am 12ft 8s 7s 31 38 mph 1013.3mb 57f 57f
4:50am 11ft 9s 7s 29 34 mph 1013.4mb 57f 57f
3:50am 11.5ft 8s 7s 25 31 mph 1013.8mb 57f 57f
2:50am 11.5ft 8s 7s 31 36 mph 1013.8mb 57f 57f
1:50am 12ft 8s 7s 31 36 mph 1014.2mb 57f 58f
12:50am 12.5ft 8s 7s 29 36 mph 1014.4mb 58f 58f
Mon 04/24 11:50pm 11ft 8s 7s 29 36 mph 1013.9mb 58f 58f
10:50pm 12ft 8s 7s 31 38 mph 1014.3mb 58f 58f
9:50pm 11.5ft 8s 7s 31 38 mph 1014.2mb 58f 58f
8:50pm 11.5ft 8s 7s 31 40 mph 1013.9mb 58f 58f
7:50pm 11ft 8s 7s 29 36 mph 1013.9mb 58f 58f
6:50pm 12.5ft 13s 7s 29 36 mph 1013.9mb 58f 58f
5:50pm 12ft 9s 7s 29 36 mph 1013.9mb 58f 58f
4:50pm 13ft 8s 7s 29 36 mph 1013.9mb 58f 58f
3:50pm 11.5ft 8s 7s 29 36 mph 1014.4mb 58f 58f
2:50pm 13ft 14s 7s 29 36 mph 1015.1mb 58f 57f
1:50pm 12ft 9s 7s 27 34 mph 1015.8mb 58f 57f
12:50pm 13.5ft 8s 7s 27 34 mph 1015.9mb 57f 57f
11:50am 12ft 9s 7s 27 34 mph 1015.8mb 57f 57f
10:50am 13ft 8s 7s 29 36 mph 1015.3mb 57f 57f
9:50am 13ft 9s 7s 27 34 mph 1015.2mb 57f 57f
8:50am 13.5ft 9s 7s 27 34 mph 1014.5mb 57f 57f
7:50am 14ft 8s 7s 27 34 mph 1013.8mb 57f 57f
6:50am 12.5ft 8s 7s 29 36 mph 1012.8mb 57f 57f
4:50am 13ft 9s 7s 25 31 mph 1012.6mb 58f 57f
3:50am 12ft 8s 7s 25 29 mph 1012.4mb 58f 57f
2:50am 12ft 15s 7s 27 31 mph 1012.3mb 58f 57f
1:50am 11ft 8s 7s 27 34 mph 1012.6mb 58f 57f
12:50am 12ft 9s 7s 27 31 mph 1012.9mb 58f 57f
Sun 04/23 11:50pm 12ft 8s 7s 29 34 mph 1013mb 58f 57f
10:50pm 11.5ft 8s 7s 29 36 mph 1012.9mb 58f 57f
9:50pm 11ft 8s 7s 29 36 mph 1012.8mb 58f 58f
8:50pm 11ft 8s 7s 29 36 mph 1012.1mb 58f 58f
7:50pm 12ft 8s 7s 29 34 mph 1011.9mb 58f 58f
6:50pm 11ft 8s 7s 27 34 mph 1012mb 58f 58f
5:50pm 11.5ft 8s 7s 29 36 mph 1012.2mb 58f 58f
4:50pm 11.5ft 8s 7s 29 34 mph 1012.3mb 58f 58f
3:50pm 10ft 8s 6s 29 36 mph 1012.8mb 58f 58f
2:50pm 10ft 8s 6s 29 36 mph 1013mb 58f 58f
1:50pm 10ft 8s 6s 27 31 mph 1013.5mb 58f 58f
12:50pm 10.5ft 8s 7s 22 29 mph 1013.9mb 58f 58f
11:50am 10ft 7s 6s 25 29 mph 1014.1mb 58f 58f
10:50am 9ft 7s 6s 22 29 mph 1014mb 58f 58f
9:50am 9.5ft 8s 6s 25 29 mph 1013.8mb 58f 58f
8:50am 9.5ft 7s 6s 25 31 mph 1013.4mb 58f 57f
7:50am 8.5ft 7s 6s 27 34 mph 1012.9mb 58f 57f
6:50am 8ft 7s 6s 25 31 mph 1012.2mb 58f 57f
5:50am 8.5ft 8s 6s 27 31 mph 1011.4mb 58f 58f
4:50am 7.5ft 7s 6s 22 29 mph 1011.3mb 58f 58f
3:50am 8ft 7s 6s 25 27 mph 1011.4mb 58f 58f
2:50am 7ft 15s 6s 22 27 mph 1011.7mb 58f 58f
1:50am 7ft 7s 6s 22 29 mph 1012.1mb 58f 58f
12:50am 7.5ft 7s 6s 22 27 mph 1012.4mb 58f 58f
Sat 04/22 11:50pm 7ft 7s 6s 22 25 mph 1012.7mb 58f 59f
10:50pm 7.5ft 7s 6s 22 29 mph 1012.6mb 58f 58f
9:50pm 8ft 7s 6s 20 25 mph 1012.4mb 58f 58f
8:50pm 7ft 7s 6s 22 27 mph 1011.9mb 58f 58f
7:50pm 6.5ft 6s 6s 25 29 mph 1011.7mb 58f 59f
6:50pm 7ft 7s 5s 22 27 mph 1011.6mb 58f 59f
4:50pm 7ft 16s 6s 20 25 mph 1012.1mb 58f 60f
3:50pm 6.5ft 6s 6s 22 27 mph 1012.1mb 59f 60f
2:50pm 7ft 7s 6s 20 25 mph 1012.5mb 59f 60f
1:50pm 7ft 8s 6s 20 25 mph 1012.6mb 59f 60f
12:50pm 7ft 16s 7s 22 27 mph 1012.5mb 58f 60f
11:50am 6.5ft 8s 6s 18 22 mph 1013mb 58f 60f
10:50am 7.5ft 8s 7s 20 22 mph 1013.1mb 58f 60f
9:50am 7ft 8s 6s 20 22 mph 1012.8mb 58f 59f
8:50am 8ft 16s 7s 18 22 mph 1012.7mb 58f 59f
7:50am 7.5ft 8s 7s 18 22 mph 1012.6mb 58f 59f
6:50am 7ft 7s 6s 18 22 mph 1012.2mb 58f 59f
4:50am 7.5ft 16s 7s 18 22 mph 1012mb 58f 59f
3:50am 8ft 12s 7s 16 20 mph 1012.2mb 58f 59f
2:50am 8ft 13s 7s 18 20 mph 1012.1mb 58f 59f
1:50am 7ft 13s 6s 16 18 mph 1012.2mb 58f 59f